sensor_id;sensor_type;location;lat;lon;timestamp;pressure;altitude;pressure_sealevel;temperature;humidity
11053;BME280;55230;42.602;23.470;2022-07-12T00:01:27;93951.38;;;11.12;78.50
11053;BME280;55230;42.602;23.470;2022-07-12T00:03:54;93976.19;;;11.41;78.60
11053;BME280;55230;42.602;23.470;2022-07-12T00:06:21;93952.34;;;11.18;76.98
11053;BME280;55230;42.602;23.470;2022-07-12T00:08:48;93924.78;;;11.23;76.13
11053;BME280;55230;42.602;23.470;2022-07-12T00:11:15;93982.25;;;11.67;75.57
11053;BME280;55230;42.602;23.470;2022-07-12T00:13:42;93880.59;;;11.08;74.86
11053;BME280;55230;42.602;23.470;2022-07-12T00:16:10;93916.50;;;11.17;73.93
11053;BME280;55230;42.602;23.470;2022-07-12T00:18:37;93979.56;;;11.97;73.81
11053;BME280;55230;42.602;23.470;2022-07-12T00:21:04;93988.91;;;12.05;72.73
11053;BME280;55230;42.602;23.470;2022-07-12T00:23:32;93916.13;;;11.28;73.56
11053;BME280;55230;42.602;23.470;2022-07-12T00:25:59;93873.69;;;11.28;73.14
11053;BME280;55230;42.602;23.470;2022-07-12T00:28:29;93426.25;;;8.30;72.45
11053;BME280;55230;42.602;23.470;2022-07-12T00:30:56;93912.06;;;11.54;71.92
11053;BME280;55230;42.602;23.470;2022-07-12T00:33:25;93978.19;;;12.23;71.52
11053;BME280;55230;42.602;23.470;2022-07-12T00:35:52;93922.16;;;11.84;72.46
11053;BME280;55230;42.602;23.470;2022-07-12T00:38:18;93986.16;;;12.27;71.77
11053;BME280;55230;42.602;23.470;2022-07-12T00:40:45;93979.69;;;12.24;71.93
11053;BME280;55230;42.602;23.470;2022-07-12T00:43:12;93976.22;;;12.24;71.34
11053;BME280;55230;42.602;23.470;2022-07-12T00:45:39;93688.94;;;10.37;71.03
11053;BME280;55230;42.602;23.470;2022-07-12T00:48:06;93915.47;;;11.67;71.31
11053;BME280;55230;42.602;23.470;2022-07-12T00:50:34;93907.78;;;11.87;70.71
11053;BME280;55230;42.602;23.470;2022-07-12T00:53:02;93905.91;;;11.75;71.64
11053;BME280;55230;42.602;23.470;2022-07-12T00:55:31;94021.31;;;12.27;71.27
11053;BME280;55230;42.602;23.470;2022-07-12T00:57:58;93906.78;;;11.72;71.85
11053;BME280;55230;42.602;23.470;2022-07-12T01:00:27;93604.81;;;9.56;71.72
11053;BME280;55230;42.602;23.470;2022-07-12T01:02:56;93970.94;;;12.20;71.32
11053;BME280;55230;42.602;23.470;2022-07-12T01:05:24;93801.66;;;10.95;70.70
11053;BME280;55230;42.602;23.470;2022-07-12T01:07:56;93943.44;;;11.82;71.85
11053;BME280;55230;42.602;23.470;2022-07-12T01:10:23;93961.88;;;12.05;72.11
11053;BME280;55230;42.602;23.470;2022-07-12T01:12:50;93933.47;;;11.70;71.67
11053;BME280;55230;42.602;23.470;2022-07-12T01:15:18;93967.66;;;12.16;71.33
11053;BME280;55230;42.602;23.470;2022-07-12T01:17:46;93630.47;;;9.61;70.80
11053;BME280;55230;42.602;23.470;2022-07-12T01:20:14;93732.06;;;10.59;71.13
11053;BME280;55230;42.602;23.470;2022-07-12T01:22:46;93932.03;;;11.78;71.37
11053;BME280;55230;42.602;23.470;2022-07-12T01:25:16;93972.91;;;12.20;71.26
11053;BME280;55230;42.602;23.470;2022-07-12T01:27:43;93931.16;;;11.81;72.15
11053;BME280;55230;42.602;23.470;2022-07-12T01:30:11;93673.56;;;9.82;71.58
11053;BME280;55230;42.602;23.470;2022-07-12T01:32:40;93970.34;;;12.16;72.00
11053;BME280;55230;42.602;23.470;2022-07-12T01:35:07;93553.97;;;9.15;71.96
11053;BME280;55230;42.602;23.470;2022-07-12T01:37:35;93878.66;;;11.39;73.01
11053;BME280;55230;42.602;23.470;2022-07-12T01:40:05;93924.06;;;11.75;72.40
11053;BME280;55230;42.602;23.470;2022-07-12T01:42:32;93967.91;;;12.09;72.84
11053;BME280;55230;42.602;23.470;2022-07-12T01:44:59;93881.16;;;11.55;73.16
11053;BME280;55230;42.602;23.470;2022-07-12T01:47:29;93960.06;;;12.02;72.92
11053;BME280;55230;42.602;23.470;2022-07-12T01:49:56;93960.34;;;11.95;74.75
11053;BME280;55230;42.602;23.470;2022-07-12T01:52:23;93476.63;;;8.51;74.07
11053;BME280;55230;42.602;23.470;2022-07-12T01:54:50;93913.06;;;11.69;74.21
11053;BME280;55230;42.602;23.470;2022-07-12T01:57:19;93958.56;;;12.01;73.58
11053;BME280;55230;42.602;23.470;2022-07-12T01:59:46;93957.28;;;11.84;74.98
11053;BME280;55230;42.602;23.470;2022-07-12T02:02:13;93902.28;;;11.47;74.18
11053;BME280;55230;42.602;23.470;2022-07-12T02:04:40;93979.47;;;11.79;75.63
11053;BME280;55230;42.602;23.470;2022-07-12T02:07:06;93778.22;;;10.39;74.54
11053;BME280;55230;42.602;23.470;2022-07-12T02:09:33;93799.78;;;10.39;76.85
11053;BME280;55230;42.602;23.470;2022-07-12T02:12:00;93993.59;;;11.40;77.90
11053;BME280;55230;42.602;23.470;2022-07-12T02:14:28;93951.88;;;11.41;77.39
11053;BME280;55230;42.602;23.470;2022-07-12T02:16:55;93957.84;;;11.36;78.99
11053;BME280;55230;42.602;23.470;2022-07-12T02:19:22;93895.88;;;10.68;81.85
11053;BME280;55230;42.602;23.470;2022-07-12T02:21:49;93954.28;;;10.96;82.67
11053;BME280;55230;42.602;23.470;2022-07-12T02:24:16;93838.00;;;10.25;81.31
11053;BME280;55230;42.602;23.470;2022-07-12T02:26:42;93855.38;;;10.24;82.47
11053;BME280;55230;42.602;23.470;2022-07-12T02:29:09;93731.41;;;9.18;83.34
11053;BME280;55230;42.602;23.470;2022-07-12T02:31:38;93959.59;;;10.87;83.66
11053;BME280;55230;42.602;23.470;2022-07-12T02:34:05;93931.75;;;10.77;82.52
11053;BME280;55230;42.602;23.470;2022-07-12T02:36:32;93994.88;;;10.92;81.95
11053;BME280;55230;42.602;23.470;2022-07-12T02:38:59;93969.03;;;11.04;81.50
11053;BME280;55230;42.602;23.470;2022-07-12T02:41:28;93748.69;;;9.55;81.13
11053;BME280;55230;42.602;23.470;2022-07-12T02:43:55;93837.47;;;10.05;80.39
11053;BME280;55230;42.602;23.470;2022-07-12T02:46:22;93962.81;;;11.16;80.54
11053;BME280;55230;42.602;23.470;2022-07-12T02:48:50;93430.78;;;7.57;81.43
11053;BME280;55230;42.602;23.470;2022-07-12T02:51:17;93974.63;;;11.09;80.49
11053;BME280;55230;42.602;23.470;2022-07-12T02:53:44;93960.81;;;11.29;79.66
11053;BME280;55230;42.602;23.470;2022-07-12T02:56:11;94018.34;;;11.38;78.54
11053;BME280;55230;42.602;23.470;2022-07-12T02:58:38;93871.63;;;10.68;79.02
11053;BME280;55230;42.602;23.470;2022-07-12T03:01:04;93966.09;;;11.54;78.26
11053;BME280;55230;42.602;23.470;2022-07-12T03:03:33;93914.91;;;11.29;76.79
11053;BME280;55230;42.602;23.470;2022-07-12T03:06:02;93868.72;;;10.84;76.19
11053;BME280;55230;42.602;23.470;2022-07-12T03:08:29;94011.81;;;11.92;75.88
11053;BME280;55230;42.602;23.470;2022-07-12T03:10:56;93887.00;;;11.23;76.62
11053;BME280;55230;42.602;23.470;2022-07-12T03:13:22;93987.75;;;12.15;76.49
11053;BME280;55230;42.602;23.470;2022-07-12T03:15:50;93981.53;;;12.36;75.85
11053;BME280;55230;42.602;23.470;2022-07-12T03:18:17;93525.13;;;9.37;72.67
11053;BME280;55230;42.602;23.470;2022-07-12T03:20:44;93992.78;;;12.93;71.52
11053;BME280;55230;42.602;23.470;2022-07-12T03:23:12;93921.50;;;12.77;71.03
11053;BME280;55230;42.602;23.470;2022-07-12T03:25:39;93991.94;;;13.41;70.97
11053;BME280;55230;42.602;23.470;2022-07-12T03:28:06;94010.28;;;13.64;70.55
11053;BME280;55230;42.602;23.470;2022-07-12T03:30:32;93643.34;;;10.83;69.37
11053;BME280;55230;42.602;23.470;2022-07-12T03:32:59;94002.19;;;13.37;71.18
11053;BME280;55230;42.602;23.470;2022-07-12T03:35:26;93996.16;;;13.15;71.06
11053;BME280;55230;42.602;23.470;2022-07-12T03:37:53;93835.09;;;11.80;70.34
11053;BME280;55230;42.602;23.470;2022-07-12T03:40:21;94011.34;;;13.12;71.52
11053;BME280;55230;42.602;23.470;2022-07-12T03:42:48;93998.56;;;13.40;72.45
11053;BME280;55230;42.602;23.470;2022-07-12T03:45:16;93883.53;;;12.14;72.52
11053;BME280;55230;42.602;23.470;2022-07-12T03:47:43;94004.03;;;12.73;72.77
11053;BME280;55230;42.602;23.470;2022-07-12T03:50:13;93999.63;;;13.06;72.96
11053;BME280;55230;42.602;23.470;2022-07-12T03:52:40;93997.06;;;13.21;73.31
11053;BME280;55230;42.602;23.470;2022-07-12T03:55:08;94007.88;;;13.21;74.91
11053;BME280;55230;42.602;23.470;2022-07-12T03:57:37;94004.72;;;13.04;72.93
11053;BME280;55230;42.602;23.470;2022-07-12T04:00:05;93895.63;;;12.58;72.18
11053;BME280;55230;42.602;23.470;2022-07-12T04:02:34;93973.16;;;13.37;70.18
11053;BME280;55230;42.602;23.470;2022-07-12T04:05:00;93999.94;;;14.31;69.13
11053;BME280;55230;42.602;23.470;2022-07-12T04:07:27;93998.28;;;14.16;70.05
11053;BME280;55230;42.602;23.470;2022-07-12T04:09:54;93998.13;;;15.41;66.88
11053;BME280;55230;42.602;23.470;2022-07-12T04:12:21;93837.84;;;14.08;62.95
11053;BME280;55230;42.602;23.470;2022-07-12T04:14:49;93868.44;;;14.65;61.19
11053;BME280;55230;42.602;23.470;2022-07-12T04:17:16;94012.22;;;15.54;59.10
11053;BME280;55230;42.602;23.470;2022-07-12T04:19:43;93972.44;;;15.42;58.46
11053;BME280;55230;42.602;23.470;2022-07-12T04:22:10;93843.97;;;14.88;57.90
11053;BME280;55230;42.602;23.470;2022-07-12T04:24:36;94027.19;;;16.60;55.67
11053;BME280;55230;42.602;23.470;2022-07-12T04:27:04;94029.13;;;16.74;55.25
11053;BME280;55230;42.602;23.470;2022-07-12T04:29:31;94027.06;;;16.69;55.48
11053;BME280;55230;42.602;23.470;2022-07-12T04:31:59;93830.91;;;15.31;55.32
11053;BME280;55230;42.602;23.470;2022-07-12T04:34:25;93979.41;;;17.14;52.22
11053;BME280;55230;42.602;23.470;2022-07-12T04:36:52;94065.78;;;17.43;52.92
11053;BME280;55230;42.602;23.470;2022-07-12T04:39:19;94014.13;;;17.99;50.52
11053;BME280;55230;42.602;23.470;2022-07-12T04:41:46;93916.53;;;16.97;51.28
11053;BME280;55230;42.602;23.470;2022-07-12T04:44:13;93897.47;;;16.77;52.45
11053;BME280;55230;42.602;23.470;2022-07-12T04:46:40;94031.34;;;17.85;52.41
11053;BME280;55230;42.602;23.470;2022-07-12T04:49:08;94003.56;;;16.86;56.55
11053;BME280;55230;42.602;23.470;2022-07-12T04:51:35;93993.69;;;16.54;57.80
11053;BME280;55230;42.602;23.470;2022-07-12T04:54:02;94037.28;;;17.84;54.66
11053;BME280;55230;42.602;23.470;2022-07-12T04:56:28;93996.72;;;17.97;54.14
11053;BME280;55230;42.602;23.470;2022-07-12T04:58:55;93996.31;;;16.98;56.82
11053;BME280;55230;42.602;23.470;2022-07-12T05:01:22;94049.09;;;17.20;57.42
11053;BME280;55230;42.602;23.470;2022-07-12T05:03:50;94040.38;;;17.51;56.16
11053;BME280;55230;42.602;23.470;2022-07-12T05:06:18;93818.75;;;15.12;58.55
11053;BME280;55230;42.602;23.470;2022-07-12T05:08:45;94034.03;;;17.60;55.53
11053;BME280;55230;42.602;23.470;2022-07-12T05:11:12;93955.44;;;17.18;54.51
11053;BME280;55230;42.602;23.470;2022-07-12T05:13:39;93933.59;;;17.38;55.51
11053;BME280;55230;42.602;23.470;2022-07-12T05:16:06;94032.72;;;18.83;54.57
11053;BME280;55230;42.602;23.470;2022-07-12T05:18:34;94058.03;;;18.78;51.35
11053;BME280;55230;42.602;23.470;2022-07-12T05:21:01;94047.91;;;17.82;54.24
11053;BME280;55230;42.602;23.470;2022-07-12T05:23:30;93922.22;;;16.79;55.79
11053;BME280;55230;42.602;23.470;2022-07-12T05:25:57;93964.25;;;17.73;54.15
11053;BME280;55230;42.602;23.470;2022-07-12T05:28:24;94061.91;;;18.66;51.96
11053;BME280;55230;42.602;23.470;2022-07-12T05:30:51;94067.22;;;18.24;54.02
11053;BME280;55230;42.602;23.470;2022-07-12T05:33:17;94006.44;;;18.03;54.04
11053;BME280;55230;42.602;23.470;2022-07-12T05:35:44;93832.03;;;15.39;57.50
11053;BME280;55230;42.602;23.470;2022-07-12T05:38:11;94056.25;;;17.53;56.96
11053;BME280;55230;42.602;23.470;2022-07-12T05:40:39;93954.84;;;16.25;59.10
11053;BME280;55230;42.602;23.470;2022-07-12T05:43:06;94047.50;;;17.28;57.70
11053;BME280;55230;42.602;23.470;2022-07-12T05:45:33;94087.13;;;17.09;58.01
11053;BME280;55230;42.602;23.470;2022-07-12T05:48:00;94047.09;;;16.66;60.71
11053;BME280;55230;42.602;23.470;2022-07-12T05:50:26;94128.22;;;16.62;60.75
11053;BME280;55230;42.602;23.470;2022-07-12T05:52:53;94037.41;;;16.65;59.84
11053;BME280;55230;42.602;23.470;2022-07-12T05:55:38;94058.31;;;16.88;61.53
11053;BME280;55230;42.602;23.470;2022-07-12T05:58:05;94052.81;;;16.68;60.96
11053;BME280;55230;42.602;23.470;2022-07-12T06:00:32;94042.75;;;16.74;60.53
11053;BME280;55230;42.602;23.470;2022-07-12T06:02:59;94052.38;;;17.04;59.99
11053;BME280;55230;42.602;23.470;2022-07-12T06:05:26;94086.56;;;17.05;60.55
11053;BME280;55230;42.602;23.470;2022-07-12T06:07:52;93990.94;;;16.40;58.91
11053;BME280;55230;42.602;23.470;2022-07-12T06:10:19;94008.13;;;16.60;59.87
11053;BME280;55230;42.602;23.470;2022-07-12T06:12:48;94034.94;;;16.82;58.68
11053;BME280;55230;42.602;23.470;2022-07-12T06:15:15;94053.56;;;16.69;60.07
11053;BME280;55230;42.602;23.470;2022-07-12T06:17:41;93876.84;;;15.29;62.97
11053;BME280;55230;42.602;23.470;2022-07-12T06:20:09;93824.03;;;14.91;61.19
11053;BME280;55230;42.602;23.470;2022-07-12T06:22:36;93859.91;;;14.95;61.48
11053;BME280;55230;42.602;23.470;2022-07-12T06:25:04;93979.34;;;15.81;60.55
11053;BME280;55230;42.602;23.470;2022-07-12T06:27:32;94025.97;;;16.47;59.25
11053;BME280;55230;42.602;23.470;2022-07-12T06:30:00;93943.91;;;16.04;60.22
11053;BME280;55230;42.602;23.470;2022-07-12T06:32:27;93993.78;;;16.16;62.81
11053;BME280;55230;42.602;23.470;2022-07-12T06:34:53;94018.91;;;16.69;60.58
11053;BME280;55230;42.602;23.470;2022-07-12T06:37:21;93932.34;;;16.09;58.87
11053;BME280;55230;42.602;23.470;2022-07-12T06:39:48;94029.38;;;16.27;59.15
11053;BME280;55230;42.602;23.470;2022-07-12T06:42:15;93971.19;;;15.95;59.62
11053;BME280;55230;42.602;23.470;2022-07-12T06:44:41;94003.81;;;16.68;58.55
11053;BME280;55230;42.602;23.470;2022-07-12T06:47:10;94048.63;;;17.57;59.82
11053;BME280;55230;42.602;23.470;2022-07-12T06:49:37;93943.19;;;16.24;56.46
11053;BME280;55230;42.602;23.470;2022-07-12T06:52:05;94041.34;;;17.33;55.81
11053;BME280;55230;42.602;23.470;2022-07-12T06:54:31;93687.78;;;15.07;55.84
11053;BME280;55230;42.602;23.470;2022-07-12T06:56:58;94038.91;;;17.76;58.88
11053;BME280;55230;42.602;23.470;2022-07-12T06:59:25;94076.34;;;17.95;54.99
11053;BME280;55230;42.602;23.470;2022-07-12T07:01:52;93906.97;;;16.67;53.02
11053;BME280;55230;42.602;23.470;2022-07-12T07:04:22;94034.84;;;17.91;54.59
11053;BME280;55230;42.602;23.470;2022-07-12T07:06:49;93981.38;;;17.99;57.27
11053;BME280;55230;42.602;23.470;2022-07-12T07:09:16;94035.06;;;17.88;53.40
11053;BME280;55230;42.602;23.470;2022-07-12T07:11:43;93965.50;;;17.52;53.55
11053;BME280;55230;42.602;23.470;2022-07-12T07:14:10;93653.84;;;15.32;54.92
11053;BME280;55230;42.602;23.470;2022-07-12T07:16:37;94017.00;;;18.16;51.25
11053;BME280;55230;42.602;23.470;2022-07-12T07:19:04;94044.16;;;18.82;52.55
11053;BME280;55230;42.602;23.470;2022-07-12T07:21:32;93877.66;;;17.68;48.36
11053;BME280;55230;42.602;23.470;2022-07-12T07:23:59;93960.34;;;18.36;51.33
11053;BME280;55230;42.602;23.470;2022-07-12T07:26:26;94047.69;;;18.57;48.77
11053;BME280;55230;42.602;23.470;2022-07-12T07:28:53;93659.88;;;15.76;53.65
11053;BME280;55230;42.602;23.470;2022-07-12T07:31:37;94040.03;;;18.97;50.07
11053;BME280;55230;42.602;23.470;2022-07-12T07:34:04;94043.84;;;19.11;49.34
11053;BME280;55230;42.602;23.470;2022-07-12T07:36:32;94044.81;;;19.08;48.84
11053;BME280;55230;42.602;23.470;2022-07-12T07:38:59;94037.47;;;18.88;46.59
11053;BME280;55230;42.602;23.470;2022-07-12T07:41:26;93713.53;;;16.56;47.79
11053;BME280;55230;42.602;23.470;2022-07-12T07:43:53;93985.00;;;18.42;47.73
11053;BME280;55230;42.602;23.470;2022-07-12T07:46:20;93984.16;;;19.04;46.86
11053;BME280;55230;42.602;23.470;2022-07-12T07:48:47;94004.19;;;18.84;50.57
11053;BME280;55230;42.602;23.470;2022-07-12T07:51:14;93974.13;;;18.90;48.24
11053;BME280;55230;42.602;23.470;2022-07-12T07:53:42;94030.06;;;19.95;50.38
11053;BME280;55230;42.602;23.470;2022-07-12T07:56:09;94047.59;;;20.20;42.45
11053;BME280;55230;42.602;23.470;2022-07-12T07:58:35;93802.31;;;18.07;45.01
11053;BME280;55230;42.602;23.470;2022-07-12T08:01:02;94037.84;;;19.43;43.47
11053;BME280;55230;42.602;23.470;2022-07-12T08:03:29;94030.97;;;19.17;43.64
11053;BME280;55230;42.602;23.470;2022-07-12T08:05:56;94036.59;;;19.02;44.78
11053;BME280;55230;42.602;23.470;2022-07-12T08:08:26;94026.94;;;19.12;45.00
11053;BME280;55230;42.602;23.470;2022-07-12T08:10:55;93627.03;;;16.46;45.75
11053;BME280;55230;42.602;23.470;2022-07-12T08:13:22;93987.25;;;18.18;43.41
11053;BME280;55230;42.602;23.470;2022-07-12T08:15:49;94030.72;;;18.47;43.23
11053;BME280;55230;42.602;23.470;2022-07-12T08:18:16;94018.38;;;18.94;42.73
11053;BME280;55230;42.602;23.470;2022-07-12T08:20:43;93875.69;;;18.00;41.71
11053;BME280;55230;42.602;23.470;2022-07-12T08:23:10;93968.75;;;19.01;42.52
11053;BME280;55230;42.602;23.470;2022-07-12T08:25:37;94003.50;;;19.00;42.21
11053;BME280;55230;42.602;23.470;2022-07-12T08:28:05;93917.09;;;18.29;43.37
11053;BME280;55230;42.602;23.470;2022-07-12T08:30:32;93954.16;;;18.67;42.13
11053;BME280;55230;42.602;23.470;2022-07-12T08:32:59;93947.25;;;18.77;41.98
11053;BME280;55230;42.602;23.470;2022-07-12T08:35:26;93975.47;;;19.05;42.66
11053;BME280;55230;42.602;23.470;2022-07-12T08:37:53;94044.66;;;19.65;40.66
11053;BME280;55230;42.602;23.470;2022-07-12T08:40:20;93828.78;;;18.80;43.26
11053;BME280;55230;42.602;23.470;2022-07-12T08:42:47;93801.47;;;18.32;41.06
11053;BME280;55230;42.602;23.470;2022-07-12T08:45:15;93908.88;;;18.24;41.55
11053;BME280;55230;42.602;23.470;2022-07-12T08:47:42;93972.00;;;18.37;42.63
11053;BME280;55230;42.602;23.470;2022-07-12T08:50:10;93943.91;;;18.31;44.82
11053;BME280;55230;42.602;23.470;2022-07-12T08:52:38;94025.59;;;18.91;44.06
11053;BME280;55230;42.602;23.470;2022-07-12T08:55:16;94000.84;;;19.11;41.35
11053;BME280;55230;42.602;23.470;2022-07-12T08:57:43;93829.63;;;18.55;42.47
11053;BME280;55230;42.602;23.470;2022-07-12T09:00:12;93953.22;;;20.71;43.84
11053;BME280;55230;42.602;23.470;2022-07-12T09:02:48;93997.59;;;21.65;39.80
11053;BME280;55230;42.602;23.470;2022-07-12T09:05:17;93986.22;;;21.33;37.75
11053;BME280;55230;42.602;23.470;2022-07-12T09:07:44;93999.53;;;20.85;36.34
11053;BME280;55230;42.602;23.470;2022-07-12T09:10:12;93813.44;;;19.10;38.79
11053;BME280;55230;42.602;23.470;2022-07-12T09:12:40;93917.72;;;19.40;38.68
11053;BME280;55230;42.602;23.470;2022-07-12T09:15:11;94024.69;;;20.23;39.10
11053;BME280;55230;42.602;23.470;2022-07-12T09:17:37;94021.44;;;20.30;37.60
11053;BME280;55230;42.602;23.470;2022-07-12T09:20:09;93856.59;;;19.76;40.11
11053;BME280;55230;42.602;23.470;2022-07-12T09:22:36;93838.38;;;20.56;37.06
11053;BME280;55230;42.602;23.470;2022-07-12T09:25:15;94022.22;;;21.13;36.38
11053;BME280;55230;42.602;23.470;2022-07-12T09:27:47;93919.03;;;20.99;35.39
11053;BME280;55230;42.602;23.470;2022-07-12T09:30:15;93982.06;;;21.10;36.45
11053;BME280;55230;42.602;23.470;2022-07-12T09:32:50;93986.31;;;21.00;37.74
11053;BME280;55230;42.602;23.470;2022-07-12T09:35:35;93934.56;;;20.25;39.52
11053;BME280;55230;42.602;23.470;2022-07-12T09:38:20;93968.06;;;21.25;38.50
11053;BME280;55230;42.602;23.470;2022-07-12T09:40:47;93982.94;;;21.51;36.57
11053;BME280;55230;42.602;23.470;2022-07-12T09:43:15;93987.75;;;21.34;34.63
11053;BME280;55230;42.602;23.470;2022-07-12T09:45:43;93698.41;;;19.52;36.23
11053;BME280;55230;42.602;23.470;2022-07-12T09:48:12;93990.69;;;21.47;36.85
11053;BME280;55230;42.602;23.470;2022-07-12T09:50:46;93909.56;;;20.89;36.74
11053;BME280;55230;42.602;23.470;2022-07-12T09:53:17;93972.38;;;20.82;38.16
11053;BME280;55230;42.602;23.470;2022-07-12T09:55:49;93984.56;;;20.97;36.26
11053;BME280;55230;42.602;23.470;2022-07-12T09:58:21;93711.06;;;18.89;36.43
11053;BME280;55230;42.602;23.470;2022-07-12T10:00:51;93989.00;;;21.28;38.71
11053;BME280;55230;42.602;23.470;2022-07-12T10:03:20;93954.34;;;21.19;36.07
11053;BME280;55230;42.602;23.470;2022-07-12T10:05:51;93922.94;;;21.20;37.39
11053;BME280;55230;42.602;23.470;2022-07-12T10:08:20;93937.13;;;22.22;37.47
11053;BME280;55230;42.602;23.470;2022-07-12T10:10:48;93843.72;;;21.00;33.67
11053;BME280;55230;42.602;23.470;2022-07-12T10:13:17;93928.81;;;21.98;34.38
11053;BME280;55230;42.602;23.470;2022-07-12T10:15:46;93845.81;;;21.75;33.54
11053;BME280;55230;42.602;23.470;2022-07-12T10:18:18;93940.16;;;21.72;35.57
11053;BME280;55230;42.602;23.470;2022-07-12T10:20:46;93887.66;;;20.78;35.30
11053;BME280;55230;42.602;23.470;2022-07-12T10:23:32;93932.44;;;21.14;37.21
11053;BME280;55230;42.602;23.470;2022-07-12T10:29:08;93961.66;;;22.15;34.98
11053;BME280;55230;42.602;23.470;2022-07-12T10:31:37;93982.09;;;21.78;34.96
11053;BME280;55230;42.602;23.470;2022-07-12T10:34:09;93878.38;;;21.03;35.06
11053;BME280;55230;42.602;23.470;2022-07-12T10:37:07;93923.41;;;21.30;33.89
11053;BME280;55230;42.602;23.470;2022-07-12T10:39:35;93943.13;;;21.74;32.01
11053;BME280;55230;42.602;23.470;2022-07-12T10:42:17;93969.25;;;21.98;32.90
11053;BME280;55230;42.602;23.470;2022-07-12T10:44:46;93899.56;;;22.01;36.30
11053;BME280;55230;42.602;23.470;2022-07-12T10:47:15;93856.50;;;21.38;32.61
11053;BME280;55230;42.602;23.470;2022-07-12T10:49:48;93759.25;;;20.36;33.09
11053;BME280;55230;42.602;23.470;2022-07-12T10:52:17;93894.47;;;21.81;31.46
11053;BME280;55230;42.602;23.470;2022-07-12T10:55:17;93952.22;;;22.05;31.26
11053;BME280;55230;42.602;23.470;2022-07-12T10:57:48;93950.72;;;21.57;33.76
11053;BME280;55230;42.602;23.470;2022-07-12T11:00:19;93948.88;;;21.71;32.39
11053;BME280;55230;42.602;23.470;2022-07-12T11:02:48;93927.81;;;21.49;32.33
11053;BME280;55230;42.602;23.470;2022-07-12T11:05:15;93768.75;;;20.24;31.95
11053;BME280;55230;42.602;23.470;2022-07-12T11:07:42;93919.31;;;21.47;34.82
11053;BME280;55230;42.602;23.470;2022-07-12T11:10:11;93933.00;;;22.40;34.35
11053;BME280;55230;42.602;23.470;2022-07-12T11:12:40;93839.84;;;21.71;33.57
11053;BME280;55230;42.602;23.470;2022-07-12T11:15:08;93548.31;;;19.90;32.36
11053;BME280;55230;42.602;23.470;2022-07-12T11:17:35;93950.31;;;22.88;33.36
11053;BME280;55230;42.602;23.470;2022-07-12T11:20:04;93946.69;;;23.23;30.97
11053;BME280;55230;42.602;23.470;2022-07-12T11:22:32;93896.75;;;22.71;31.58
11053;BME280;55230;42.602;23.470;2022-07-12T11:24:59;93899.22;;;21.74;34.57
11053;BME280;55230;42.602;23.470;2022-07-12T11:27:26;93952.66;;;21.68;35.50
11053;BME280;55230;42.602;23.470;2022-07-12T11:29:57;93940.59;;;21.88;32.92
11053;BME280;55230;42.602;23.470;2022-07-12T11:32:33;93931.63;;;21.82;32.41
11053;BME280;55230;42.602;23.470;2022-07-12T11:35:01;93725.91;;;20.21;33.90
11053;BME280;55230;42.602;23.470;2022-07-12T11:37:27;93942.41;;;22.15;34.25
11053;BME280;55230;42.602;23.470;2022-07-12T11:39:56;93901.75;;;21.72;34.20
11053;BME280;55230;42.602;23.470;2022-07-12T11:42:23;93941.78;;;22.33;34.83
11053;BME280;55230;42.602;23.470;2022-07-12T11:44:50;93836.19;;;21.17;34.14
11053;BME280;55230;42.602;23.470;2022-07-12T11:47:20;93837.63;;;21.29;33.35
11053;BME280;55230;42.602;23.470;2022-07-12T11:49:50;93802.00;;;21.18;35.41
11053;BME280;55230;42.602;23.470;2022-07-12T11:52:17;93930.34;;;22.58;33.62
11053;BME280;55230;42.602;23.470;2022-07-12T11:54:44;93918.84;;;23.08;33.95
11053;BME280;55230;42.602;23.470;2022-07-12T11:57:12;93834.72;;;22.22;33.94
11053;BME280;55230;42.602;23.470;2022-07-12T11:59:39;93917.59;;;21.91;34.16
11053;BME280;55230;42.602;23.470;2022-07-12T12:02:07;93929.19;;;22.13;34.20
11053;BME280;55230;42.602;23.470;2022-07-12T12:04:46;93802.75;;;21.24;33.58
11053;BME280;55230;42.602;23.470;2022-07-12T12:07:13;93940.63;;;21.76;35.47
11053;BME280;55230;42.602;23.470;2022-07-12T12:10:01;93841.31;;;21.37;34.35
11053;BME280;55230;42.602;23.470;2022-07-12T12:12:35;93859.53;;;21.81;34.33
11053;BME280;55230;42.602;23.470;2022-07-12T12:15:04;93818.69;;;21.61;35.31
11053;BME280;55230;42.602;23.470;2022-07-12T12:17:32;93925.03;;;22.90;33.95
11053;BME280;55230;42.602;23.470;2022-07-12T12:20:10;93924.38;;;22.54;33.34
11053;BME280;55230;42.602;23.470;2022-07-12T12:22:37;93873.97;;;22.17;36.10
11053;BME280;55230;42.602;23.470;2022-07-12T12:25:05;93832.06;;;20.83;35.76
11053;BME280;55230;42.602;23.470;2022-07-12T12:27:40;93861.69;;;21.01;36.38
11053;BME280;55230;42.602;23.470;2022-07-12T12:30:08;93817.75;;;21.12;38.20
11053;BME280;55230;42.602;23.470;2022-07-12T12:32:46;93872.66;;;21.94;35.36
11053;BME280;55230;42.602;23.470;2022-07-12T12:35:15;93830.22;;;21.13;35.13
11053;BME280;55230;42.602;23.470;2022-07-12T12:37:49;93860.25;;;21.82;34.84
11053;BME280;55230;42.602;23.470;2022-07-12T12:40:18;93838.34;;;21.70;34.61
11053;BME280;55230;42.602;23.470;2022-07-12T12:42:45;93923.34;;;21.93;33.98
11053;BME280;55230;42.602;23.470;2022-07-12T12:45:17;93919.41;;;22.18;34.46
11053;BME280;55230;42.602;23.470;2022-07-12T12:47:52;93935.88;;;22.53;33.86
11053;BME280;55230;42.602;23.470;2022-07-12T12:50:39;93910.00;;;22.08;35.25
11053;BME280;55230;42.602;23.470;2022-07-12T12:53:13;93826.78;;;21.83;36.38
11053;BME280;55230;42.602;23.470;2022-07-12T12:55:41;93878.31;;;22.36;35.71
11053;BME280;55230;42.602;23.470;2022-07-12T12:58:08;93943.16;;;23.04;35.31
11053;BME280;55230;42.602;23.470;2022-07-12T13:00:37;93922.06;;;23.12;36.09